Time;durP1;ratioP1;P1;durP2;ratioP2;P2;SDS_P1;SDS_P2;PMS_P1;PMS_P2;Temp;Humidity;BMP_temperature;BMP_pressure;BME280_temperature;BME280_humidity;BME280_pressure;Samples;Min_cycle;Max_cycle;Signal;HPM_P1;HPM_P2
2022/01/06 00:01:46;;;;;;;0.10;0.00;;;6.20;72.70;;;;;;5044462;28;20086;-76
2022/01/06 00:04:12;;;;;;;0.10;0.00;;;6.10;72.50;;;;;;5047013;28;20059;-76
2022/01/06 00:06:41;;;;;;;0.10;0.10;;;6.20;72.80;;;;;;5043381;28;20032;-76
2022/01/06 00:09:07;;;;;;;0.52;0.00;;;6.20;72.90;;;;;;5044904;28;20036;-76
2022/01/06 00:11:33;;;;;;;1.15;0.10;;;6.10;73.50;;;;;;5042758;28;20676;-76
2022/01/06 00:24:49;;;;;;;4.95;1.00;;;6.10;73.50;;;;;;5045867;28;19915;-75
2022/01/06 00:27:15;;;;;;;0.35;0.10;;;6.10;74.50;;;;;;5043451;28;20025;-76
2022/01/06 00:29:42;;;;;;;1.77;0.17;;;6.00;74.30;;;;;;5046075;28;20033;-76
2022/01/06 00:32:08;;;;;;;1.83;0.25;;;6.10;74.40;;;;;;5050646;28;20102;-76
2022/01/06 00:34:35;;;;;;;0.13;0.10;;;6.10;73.80;;;;;;5049158;28;20387;-76
2022/01/06 00:37:02;;;;;;;0.47;0.10;;;6.10;73.50;;;;;;5043273;28;20138;-76
2022/01/06 00:39:28;;;;;;;0.52;0.20;;;6.10;73.70;;;;;;5038210;28;20022;-75
2022/01/06 00:41:59;;;;;;;0.98;0.20;;;6.10;73.90;;;;;;5047492;28;20033;-76
2022/01/06 00:44:25;;;;;;;0.43;0.10;;;6.10;73.80;;;;;;5044199;28;20452;-75
2022/01/06 00:46:52;;;;;;;0.10;0.05;;;6.10;73.20;;;;;;5046291;28;20052;-75
2022/01/06 00:49:20;;;;;;;2.50;0.10;;;6.20;73.10;;;;;;5047391;28;20037;-75
2022/01/06 00:51:46;;;;;;;0.00;0.00;;;6.10;73.60;;;;;;5049923;28;20475;-76
2022/01/06 00:54:13;;;;;;;0.30;0.03;;;6.20;73.10;;;;;;5053231;28;20029;-75
2022/01/06 00:56:39;;;;;;;0.03;0.03;;;6.10;74.10;;;;;;5054667;28;20029;-76
2022/01/06 00:59:05;;;;;;;0.55;0.10;;;6.30;72.20;;;;;;5044207;28;20033;-76
2022/01/06 01:01:31;;;;;;;0.10;0.00;;;6.40;72.40;;;;;;5051716;28;20526;-75
2022/01/06 01:03:57;;;;;;;0.30;0.10;;;6.40;72.40;;;;;;5053385;28;20021;-75
2022/01/06 01:06:23;;;;;;;0.00;0.00;;;6.50;70.80;;;;;;5052849;28;20032;-75
2022/01/06 01:08:48;;;;;;;0.25;0.10;;;6.50;71.70;;;;;;5038911;28;20033;-75
2022/01/06 01:11:15;;;;;;;1.17;0.30;;;6.50;71.90;;;;;;5044780;28;20025;-75
2022/01/06 01:13:54;;;;;;;0.73;0.20;;;6.40;72.30;;;;;;5049214;28;20058;-75
2022/01/06 01:16:29;;;;;;;0.60;0.10;;;6.40;71.60;;;;;;5052058;28;20040;-75
2022/01/06 01:18:58;;;;;;;0.10;0.00;;;6.20;73.30;;;;;;5049199;28;20068;-75
2022/01/06 01:21:28;;;;;;;2.95;0.15;;;6.30;71.70;;;;;;5028750;28;20415;-75
2022/01/06 01:23:59;;;;;;;0.05;0.05;;;6.30;72.30;;;;;;5050394;28;20379;-75
2022/01/06 01:26:27;;;;;;;0.43;0.17;;;6.30;71.90;;;;;;5049790;28;20060;-76
2022/01/06 01:28:53;;;;;;;2.83;0.17;;;6.40;71.70;;;;;;5044023;28;20037;-75
2022/01/06 01:31:30;;;;;;;0.45;0.00;;;6.30;72.90;;;;;;5044407;28;20060;-75
2022/01/06 01:33:58;;;;;;;0.00;0.00;;;6.30;71.90;;;;;;5053030;28;20025;-76
2022/01/06 01:36:24;;;;;;;2.70;0.30;;;6.30;72.20;;;;;;5045412;28;20159;-75
2022/01/06 01:38:50;;;;;;;0.47;0.25;;;6.30;72.90;;;;;;5044062;28;20021;-76
2022/01/06 01:41:16;;;;;;;0.20;0.03;;;6.30;73.60;;;;;;5046712;28;20390;-75
2022/01/06 01:43:43;;;;;;;0.00;0.00;;;6.40;71.50;;;;;;5044828;28;20029;-75
2022/01/06 01:46:12;;;;;;;1.30;0.10;;;6.40;71.70;;;;;;5046936;28;20162;-75
2022/01/06 01:48:42;;;;;;;0.57;0.03;;;6.40;72.30;;;;;;5046497;28;20037;-75
2022/01/06 01:51:11;;;;;;;0.20;0.00;;;6.30;72.40;;;;;;5044342;28;20352;-75
2022/01/06 01:53:37;;;;;;;0.45;0.15;;;6.30;73.70;;;;;;5046943;28;20052;-76
2022/01/06 01:56:08;;;;;;;0.20;0.10;;;6.30;72.50;;;;;;5050327;28;20021;-76
2022/01/06 01:58:35;;;;;;;0.43;0.05;;;6.20;73.00;;;;;;5043395;28;20610;-76
2022/01/06 02:01:01;;;;;;;0.20;0.10;;;6.30;72.30;;;;;;5047047;28;20064;-76
2022/01/06 02:03:27;;;;;;;0.00;0.00;;;6.30;72.70;;;;;;5038808;28;20029;-75
2022/01/06 02:05:53;;;;;;;0.30;0.20;;;6.30;72.30;;;;;;5047358;28;20029;-75
2022/01/06 02:08:18;;;;;;;0.95;0.60;;;6.30;72.70;;;;;;5048574;28;20027;-75
2022/01/06 02:10:44;;;;;;;0.52;0.13;;;6.40;71.90;;;;;;5044413;28;20327;-75
2022/01/06 02:13:10;;;;;;;0.00;0.00;;;6.40;73.30;;;;;;5050745;28;20029;-75
2022/01/06 02:15:36;;;;;;;0.25;0.00;;;6.20;74.00;;;;;;5048366;28;20017;-75
2022/01/06 02:18:01;;;;;;;0.20;0.00;;;6.30;72.50;;;;;;5052457;28;20100;-76
2022/01/06 02:20:28;;;;;;;0.20;0.03;;;6.30;73.70;;;;;;5044416;28;20033;-75
2022/01/06 02:22:54;;;;;;;0.10;0.00;;;6.30;72.60;;;;;;5047562;28;20030;-75
2022/01/06 02:25:26;;;;;;;0.40;0.10;;;6.40;72.30;;;;;;5040339;28;20094;-75
2022/01/06 02:27:53;;;;;;;0.28;0.00;;;6.40;72.20;;;;;;5048855;28;20105;-75
2022/01/06 02:30:21;;;;;;;0.28;0.10;;;6.30;72.90;;;;;;5045731;28;20095;-75
2022/01/06 02:32:48;;;;;;;0.20;0.17;;;6.30;73.40;;;;;;5050856;28;20056;-75
2022/01/06 02:35:20;;;;;;;1.00;0.28;;;6.30;73.50;;;;;;5049181;28;20022;-75
2022/01/06 02:37:46;;;;;;;0.10;0.00;;;6.20;73.80;;;;;;5051874;28;20029;-75
2022/01/06 02:40:17;;;;;;;0.20;0.10;;;6.20;73.00;;;;;;5041557;28;20021;-75
2022/01/06 02:42:49;;;;;;;0.32;0.10;;;6.30;73.00;;;;;;5050924;28;20316;-75
2022/01/06 02:45:16;;;;;;;0.88;0.05;;;6.30;73.10;;;;;;5046324;28;20064;-75
2022/01/06 02:47:43;;;;;;;0.30;0.10;;;6.10;75.10;;;;;;5050225;28;20109;-75
2022/01/06 02:50:10;;;;;;;0.85;0.20;;;6.00;75.00;;;;;;5047272;28;20037;-75
2022/01/06 02:52:36;;;;;;;0.28;0.05;;;6.10;74.10;;;;;;5048124;28;20036;-75
2022/01/06 02:55:04;;;;;;;0.20;0.00;;;6.20;74.10;;;;;;5048691;28;20033;-75
2022/01/06 02:57:30;;;;;;;0.47;0.20;;;6.20;73.30;;;;;;5044081;28;20032;-75
2022/01/06 02:59:56;;;;;;;1.20;0.20;;;6.10;74.60;;;;;;5044179;28;20029;-75
2022/01/06 03:02:22;;;;;;;1.45;0.10;;;6.10;74.10;;;;;;5041986;28;20435;-75
2022/01/06 03:04:47;;;;;;;0.00;0.00;;;6.00;73.80;;;;;;5049616;28;20037;-75
2022/01/06 03:07:13;;;;;;;0.17;0.00;;;6.00;74.40;;;;;;5045688;28;20033;-75
2022/01/06 03:09:41;;;;;;;0.63;0.20;;;5.90;75.50;;;;;;5047796;28;20353;-75
2022/01/06 03:12:25;;;;;;;0.57;0.15;;;6.00;74.10;;;;;;5045075;28;20121;-75
2022/01/06 03:14:51;;;;;;;1.17;0.10;;;6.00;74.20;;;;;;5039959;28;20468;-75
2022/01/06 03:17:17;;;;;;;0.30;0.20;;;5.90;75.70;;;;;;5049712;28;20282;-75
2022/01/06 03:19:43;;;;;;;0.00;0.00;;;5.90;74.60;;;;;;5038499;28;20478;-76
2022/01/06 03:22:09;;;;;;;0.00;0.00;;;6.00;74.20;;;;;;5050190;28;20040;-75
2022/01/06 03:24:35;;;;;;;0.25;0.03;;;5.90;75.10;;;;;;5043716;28;20036;-75
2022/01/06 03:27:00;;;;;;;0.82;0.30;;;5.90;75.30;;;;;;5049981;28;20029;-75
2022/01/06 03:29:26;;;;;;;1.10;0.00;;;5.90;75.00;;;;;;5046459;28;20053;-75
2022/01/06 03:31:52;;;;;;;0.00;0.00;;;6.00;74.30;;;;;;5044784;28;20053;-75
2022/01/06 03:34:18;;;;;;;0.38;0.10;;;6.00;73.80;;;;;;5048487;28;20033;-75
2022/01/06 03:36:43;;;;;;;0.52;0.10;;;6.10;73.60;;;;;;5050907;28;20037;-75
2022/01/06 03:39:09;;;;;;;0.20;0.10;;;6.10;73.90;;;;;;5043985;28;20123;-76
2022/01/06 03:41:35;;;;;;;0.43;0.10;;;6.00;74.40;;;;;;5043672;28;20032;-75
2022/01/06 03:44:01;;;;;;;0.28;0.08;;;6.00;74.70;;;;;;5045130;28;20392;-75
2022/01/06 03:46:27;;;;;;;0.22;0.00;;;5.80;76.30;;;;;;5050165;28;20096;-75
2022/01/06 03:48:53;;;;;;;0.15;0.08;;;5.90;75.20;;;;;;5047338;28;20025;-75
2022/01/06 03:51:20;;;;;;;2.00;0.15;;;6.00;73.80;;;;;;5046837;28;20398;-76
2022/01/06 03:53:47;;;;;;;0.28;0.10;;;6.00;74.90;;;;;;5047755;28;20028;-75
2022/01/06 03:56:13;;;;;;;0.55;0.03;;;6.00;75.40;;;;;;5050399;28;20020;-75
2022/01/06 03:58:40;;;;;;;0.05;0.00;;;6.00;74.50;;;;;;5045194;28;20025;-75
2022/01/06 04:01:08;;;;;;;0.10;0.00;;;6.00;74.70;;;;;;5042471;28;20040;-74
2022/01/06 04:03:34;;;;;;;1.25;0.10;;;6.00;75.10;;;;;;5038589;28;20175;-74
2022/01/06 04:06:00;;;;;;;0.03;0.00;;;6.00;75.20;;;;;;5039009;28;20112;-73
2022/01/06 04:08:26;;;;;;;0.17;0.10;;;5.90;75.70;;;;;;5038793;28;20040;-74
2022/01/06 04:10:52;;;;;;;0.00;0.00;;;6.00;74.20;;;;;;5036965;28;20032;-74
2022/01/06 04:13:17;;;;;;;0.38;0.10;;;6.00;74.10;;;;;;5037742;28;20029;-74
2022/01/06 04:15:45;;;;;;;0.20;0.10;;;6.30;72.60;;;;;;5034137;28;20075;-74
2022/01/06 04:18:10;;;;;;;0.65;0.10;;;6.60;71.50;;;;;;5042933;28;20794;-74
2022/01/06 04:20:36;;;;;;;0.10;0.08;;;6.60;71.80;;;;;;5037942;28;20041;-74
2022/01/06 04:23:02;;;;;;;0.17;0.03;;;6.40;74.00;;;;;;5037567;28;20060;-74
2022/01/06 04:25:28;;;;;;;0.10;0.03;;;6.10;75.90;;;;;;5045035;28;20028;-74
2022/01/06 04:27:53;;;;;;;0.00;0.00;;;6.00;75.30;;;;;;5025892;28;20045;-74
2022/01/06 04:30:19;;;;;;;0.00;0.00;;;6.10;73.50;;;;;;5045066;28;20143;-74
2022/01/06 04:32:45;;;;;;;0.00;0.00;;;6.20;73.10;;;;;;5040309;28;20042;-74
2022/01/06 04:35:11;;;;;;;0.55;0.20;;;6.20;74.40;;;;;;5039336;28;20083;-74
2022/01/06 04:37:37;;;;;;;2.42;0.20;;;6.20;73.80;;;;;;5040774;28;20033;-74
2022/01/06 04:40:05;;;;;;;0.35;0.20;;;6.10;74.20;;;;;;5038884;28;20033;-74
2022/01/06 04:42:31;;;;;;;0.60;0.20;;;6.00;74.50;;;;;;5045222;28;20056;-74
2022/01/06 04:44:56;;;;;;;0.00;0.00;;;6.00;75.10;;;;;;5042321;28;20021;-74
2022/01/06 04:47:22;;;;;;;0.55;0.10;;;6.00;75.50;;;;;;5043621;28;20891;-74
2022/01/06 04:49:48;;;;;;;0.35;0.10;;;6.00;75.10;;;;;;5035678;28;20029;-74
2022/01/06 04:52:14;;;;;;;0.40;0.13;;;6.00;74.20;;;;;;5044925;28;20377;-74
2022/01/06 04:54:40;;;;;;;0.17;0.03;;;6.10;73.70;;;;;;5040024;28;20025;-73
2022/01/06 04:57:05;;;;;;;0.30;0.10;;;6.20;73.10;;;;;;5041844;28;20492;-74
2022/01/06 04:59:31;;;;;;;2.83;0.52;;;6.20;73.50;;;;;;5036237;28;20037;-74
2022/01/06 05:01:57;;;;;;;0.00;0.00;;;6.20;73.70;;;;;;5041643;28;20041;-74
2022/01/06 05:04:22;;;;;;;0.10;0.10;;;6.10;74.60;;;;;;5031079;28;20461;-74
2022/01/06 05:06:51;;;;;;;0.10;0.08;;;6.10;73.70;;;;;;5032836;28;20092;-74
2022/01/06 05:09:17;;;;;;;1.95;0.10;;;6.10;74.20;;;;;;5041203;28;20363;-74
2022/01/06 05:11:43;;;;;;;0.35;0.25;;;6.10;73.90;;;;;;5041901;28;20035;-73
2022/01/06 05:14:08;;;;;;;0.22;0.15;;;6.10;73.60;;;;;;5035894;28;20037;-73
2022/01/06 05:16:34;;;;;;;3.10;0.30;;;6.10;73.50;;;;;;5041269;28;20028;-73
2022/01/06 05:18:59;;;;;;;0.22;0.22;;;6.20;73.20;;;;;;5032418;28;20043;-73
2022/01/06 05:21:29;;;;;;;0.63;0.10;;;6.10;74.90;;;;;;5033568;28;20103;-73
2022/01/06 05:23:56;;;;;;;0.10;0.10;;;6.00;73.70;;;;;;5034799;28;20025;-73
2022/01/06 05:26:22;;;;;;;0.20;0.10;;;6.10;73.40;;;;;;5038236;28;20040;-73
2022/01/06 05:28:48;;;;;;;0.22;0.10;;;6.10;73.60;;;;;;5038844;28;20402;-74
2022/01/06 05:31:13;;;;;;;0.45;0.10;;;6.10;73.80;;;;;;5039731;28;20064;-74
2022/01/06 05:33:39;;;;;;;0.28;0.20;;;6.10;73.90;;;;;;5035812;28;20029;-73
2022/01/06 05:36:05;;;;;;;0.73;0.20;;;6.00;74.20;;;;;;5038584;28;20047;-71
2022/01/06 05:38:31;;;;;;;0.35;0.13;;;6.00;74.30;;;;;;5042220;28;20033;-73
2022/01/06 05:40:57;;;;;;;0.00;0.00;;;6.00;73.90;;;;;;5044743;28;20044;-73
2022/01/06 05:43:23;;;;;;;0.25;0.10;;;6.00;73.70;;;;;;5043325;28;20055;-73
2022/01/06 05:45:55;;;;;;;0.80;0.08;;;6.10;73.50;;;;;;5037151;28;20025;-73
2022/01/06 05:48:22;;;;;;;0.43;0.10;;;6.10;73.30;;;;;;5037455;28;20036;-73
2022/01/06 05:50:48;;;;;;;0.25;0.10;;;6.20;72.60;;;;;;5045221;28;20041;-74
2022/01/06 05:53:15;;;;;;;0.30;0.00;;;6.30;72.70;;;;;;5043995;28;20741;-73
2022/01/06 05:55:41;;;;;;;0.22;0.10;;;6.10;73.90;;;;;;5038596;28;20025;-73
2022/01/06 05:58:07;;;;;;;1.10;0.00;;;6.20;72.60;;;;;;5041291;28;20032;-74
2022/01/06 06:00:32;;;;;;;0.30;0.10;;;6.20;73.10;;;;;;5042578;28;20969;-74
2022/01/06 06:02:58;;;;;;;0.38;0.00;;;6.10;74.20;;;;;;5041523;28;20025;-73
2022/01/06 06:05:25;;;;;;;0.45;0.05;;;6.10;72.30;;;;;;5034894;28;20029;-73
2022/01/06 06:07:50;;;;;;;0.85;0.20;;;6.20;72.50;;;;;;5041723;28;20148;-74
2022/01/06 06:10:16;;;;;;;0.45;0.17;;;6.30;72.60;;;;;;5045090;28;20059;-74
2022/01/06 06:12:42;;;;;;;0.47;0.17;;;6.20;72.50;;;;;;5037568;28;20041;-73
2022/01/06 06:15:08;;;;;;;0.30;0.10;;;6.10;72.50;;;;;;5040972;28;21064;-73
2022/01/06 06:17:34;;;;;;;0.60;0.13;;;6.10;72.60;;;;;;5038604;28;20779;-73
2022/01/06 06:20:00;;;;;;;0.32;0.10;;;6.30;71.40;;;;;;5041326;28;20036;-73
2022/01/06 06:22:26;;;;;;;1.73;0.05;;;6.30;72.80;;;;;;5035339;28;20748;-74
2022/01/06 06:24:52;;;;;;;0.10;0.00;;;6.10;73.00;;;;;;5043036;28;20040;-74
2022/01/06 06:27:17;;;;;;;0.30;0.00;;;6.30;71.20;;;;;;5039509;28;20036;-73
2022/01/06 06:29:43;;;;;;;0.43;0.00;;;6.50;70.90;;;;;;5042811;28;20044;-73
2022/01/06 06:32:09;;;;;;;0.40;0.30;;;6.50;71.40;;;;;;5033179;28;20049;-73
2022/01/06 06:34:35;;;;;;;0.10;0.05;;;6.50;71.40;;;;;;5041076;28;20087;-73
2022/01/06 06:37:00;;;;;;;0.52;0.10;;;6.40;71.30;;;;;;5033556;28;20034;-73
2022/01/06 06:39:26;;;;;;;0.10;0.10;;;6.20;72.70;;;;;;5041303;28;20449;-73
2022/01/06 06:41:52;;;;;;;0.00;0.00;;;6.30;71.60;;;;;;5034311;28;20044;-73
2022/01/06 06:44:18;;;;;;;0.43;0.17;;;6.40;70.80;;;;;;5037324;28;20382;-73
2022/01/06 06:46:44;;;;;;;0.30;0.10;;;6.30;72.30;;;;;;5041498;28;20084;-73
2022/01/06 06:49:09;;;;;;;0.30;0.25;;;6.10;73.00;;;;;;5041972;28;20037;-74
2022/01/06 06:51:35;;;;;;;0.20;0.08;;;5.90;74.00;;;;;;5039683;28;20033;-74
2022/01/06 06:54:01;;;;;;;0.25;0.15;;;5.80;74.40;;;;;;5038245;28;20390;-73
2022/01/06 06:56:27;;;;;;;0.80;0.20;;;5.80;73.80;;;;;;5040761;28;20033;-73
2022/01/06 06:58:53;;;;;;;1.08;0.25;;;5.80;73.70;;;;;;5030624;28;20556;-73
2022/01/06 07:01:18;;;;;;;0.73;0.30;;;5.80;74.10;;;;;;5042320;28;20044;-73
2022/01/06 07:03:46;;;;;;;1.13;0.57;;;5.80;73.60;;;;;;5037548;28;20079;-74
2022/01/06 07:06:11;;;;;;;0.28;0.15;;;5.70;74.40;;;;;;5038881;28;20028;-73
2022/01/06 07:08:37;;;;;;;0.85;0.30;;;5.70;74.50;;;;;;5041039;28;20029;-73
2022/01/06 07:11:03;;;;;;;0.73;0.30;;;5.70;74.70;;;;;;5040368;28;20033;-73
2022/01/06 07:13:29;;;;;;;1.50;0.20;;;5.70;74.90;;;;;;5040381;28;20090;-73
2022/01/06 07:15:54;;;;;;;0.38;0.20;;;5.60;75.50;;;;;;5038773;28;20419;-73
2022/01/06 07:18:20;;;;;;;0.30;0.13;;;5.60;74.70;;;;;;5035450;28;20029;-73
2022/01/06 07:20:46;;;;;;;0.32;0.10;;;5.70;75.60;;;;;;5034561;28;20626;-73
2022/01/06 07:23:12;;;;;;;0.13;0.10;;;5.70;75.30;;;;;;5040495;28;20029;-74
2022/01/06 07:25:38;;;;;;;1.27;0.20;;;5.70;75.20;;;;;;5042542;28;20104;-74
2022/01/06 07:28:05;;;;;;;0.85;0.32;;;5.70;74.40;;;;;;5035697;28;20045;-73
2022/01/06 07:30:33;;;;;;;0.88;0.55;;;5.70;75.00;;;;;;5035948;28;20084;-74
2022/01/06 07:33:00;;;;;;;0.52;0.22;;;5.80;73.80;;;;;;5032897;28;20054;-73
2022/01/06 07:35:27;;;;;;;0.82;0.28;;;5.90;75.10;;;;;;5028879;28;20094;-74
2022/01/06 07:37:53;;;;;;;0.77;0.20;;;5.90;74.40;;;;;;5040321;28;20061;-73
2022/01/06 07:40:20;;;;;;;0.13;0.10;;;5.80;74.30;;;;;;5038478;28;20056;-73
2022/01/06 07:42:47;;;;;;;6.80;3.90;;;5.80;74.20;;;;;;5040379;28;20064;-73
2022/01/06 07:45:13;;;;;;;5.53;3.03;;;5.70;75.10;;;;;;5026459;28;20396;-73
2022/01/06 07:47:54;;;;;;;0.98;0.63;;;5.60;77.10;;;;;;5034791;28;20037;-73
2022/01/06 07:50:20;;;;;;;0.90;0.30;;;5.50;75.90;;;;;;5036642;28;20523;-73
2022/01/06 07:52:46;;;;;;;1.17;0.30;;;5.50;76.20;;;;;;5033432;28;20120;-73
2022/01/06 07:55:12;;;;;;;0.57;0.30;;;5.60;74.60;;;;;;5014472;28;20148;-74
2022/01/06 07:57:37;;;;;;;0.60;0.13;;;5.80;73.60;;;;;;5032124;28;20024;-73
2022/01/06 08:00:04;;;;;;;7.05;4.40;;;5.80;74.00;;;;;;5037254;28;20049;-76
2022/01/06 08:02:29;;;;;;;0.85;0.50;;;5.80;74.80;;;;;;5038794;28;20482;-75
2022/01/06 08:04:55;;;;;;;1.02;0.30;;;5.70;75.60;;;;;;5035901;28;20033;-77
2022/01/06 08:07:21;;;;;;;1.13;0.20;;;5.80;74.60;;;;;;5046249;28;20021;-75
2022/01/06 08:09:47;;;;;;;2.63;1.05;;;5.80;74.10;;;;;;5042682;28;20032;-74
2022/01/06 08:12:13;;;;;;;0.70;0.25;;;5.70;75.40;;;;;;5033704;28;20026;-74
2022/01/06 08:14:38;;;;;;;1.08;0.30;;;5.80;75.10;;;;;;5039206;28;20388;-73
2022/01/06 08:17:04;;;;;;;0.77;0.22;;;5.80;75.40;;;;;;5042418;28;20446;-73
2022/01/06 08:19:30;;;;;;;0.30;0.10;;;5.70;75.30;;;;;;5035207;28;20029;-74
2022/01/06 08:21:56;;;;;;;0.80;0.25;;;5.70;74.90;;;;;;5035297;28;20052;-73
2022/01/06 08:24:22;;;;;;;0.82;0.20;;;5.70;74.60;;;;;;5040589;28;20070;-74
2022/01/06 08:26:48;;;;;;;1.17;0.57;;;5.90;73.50;;;;;;5036772;28;20026;-74
2022/01/06 08:29:13;;;;;;;1.13;0.40;;;5.80;74.80;;;;;;5037004;28;20041;-74
2022/01/06 08:31:39;;;;;;;1.95;0.60;;;5.80;73.60;;;;;;5032741;28;20041;-74
2022/01/06 08:34:05;;;;;;;0.57;0.30;;;5.80;74.00;;;;;;5040236;28;20029;-74
2022/01/06 08:36:31;;;;;;;0.85;0.35;;;5.60;75.30;;;;;;5037942;28;21336;-74
2022/01/06 08:38:56;;;;;;;0.88;0.30;;;5.60;74.40;;;;;;5027445;28;20029;-73
2022/01/06 08:41:23;;;;;;;2.53;0.80;;;5.80;73.50;;;;;;5035105;28;20041;-73
2022/01/06 08:43:48;;;;;;;3.05;1.05;;;5.80;74.10;;;;;;5040909;28;20029;-74
2022/01/06 08:46:14;;;;;;;0.65;0.30;;;5.70;74.00;;;;;;5036668;28;20056;-73
2022/01/06 08:48:40;;;;;;;0.82;0.30;;;5.60;74.80;;;;;;5037072;28;20036;-73
2022/01/06 08:51:06;;;;;;;0.98;0.50;;;5.80;73.60;;;;;;5040148;28;20628;-74
2022/01/06 08:53:31;;;;;;;0.43;0.20;;;5.80;73.40;;;;;;5037199;28;20134;-73
2022/01/06 08:55:58;;;;;;;0.82;0.30;;;5.80;73.90;;;;;;5039568;28;20032;-74
2022/01/06 08:58:23;;;;;;;1.13;0.40;;;5.70;74.40;;;;;;5041437;28;20490;-73
2022/01/06 09:00:49;;;;;;;0.55;0.28;;;5.80;73.70;;;;;;5038233;28;20045;-73
2022/01/06 09:03:15;;;;;;;1.45;0.47;;;6.00;72.90;;;;;;5036295;28;20094;-74
2022/01/06 09:05:40;;;;;;;0.93;0.30;;;6.00;73.20;;;;;;5041658;28;20498;-74
2022/01/06 09:08:08;;;;;;;0.43;0.25;;;5.80;74.60;;;;;;5038276;28;20159;-74
2022/01/06 09:10:34;;;;;;;0.85;0.20;;;5.80;74.10;;;;;;5039299;28;20135;-73
2022/01/06 09:13:04;;;;;;;0.88;0.40;;;6.00;72.70;;;;;;5038023;28;20586;-73
2022/01/06 09:15:30;;;;;;;1.05;0.40;;;6.10;72.10;;;;;;5035920;28;20036;-74
2022/01/06 09:17:56;;;;;;;0.75;0.30;;;6.20;72.10;;;;;;5043899;28;20025;-75
2022/01/06 09:20:22;;;;;;;0.98;0.68;;;6.00;73.30;;;;;;5041044;28;20496;-73
2022/01/06 09:22:48;;;;;;;1.25;0.30;;;5.80;74.80;;;;;;5038122;28;20084;-74
2022/01/06 09:25:15;;;;;;;0.68;0.20;;;6.10;72.20;;;;;;5042684;28;20609;-74
2022/01/06 09:27:42;;;;;;;0.30;0.10;;;6.10;71.50;;;;;;5034420;28;20387;-74
2022/01/06 09:30:08;;;;;;;0.40;0.30;;;6.30;70.90;;;;;;5037584;28;20036;-74
2022/01/06 09:32:34;;;;;;;0.40;0.10;;;6.50;70.50;;;;;;5039346;28;20526;-73
2022/01/06 09:35:00;;;;;;;0.08;0.08;;;6.50;70.60;;;;;;5037343;28;20036;-74
2022/01/06 09:37:26;;;;;;;0.30;0.17;;;6.70;69.00;;;;;;5040606;28;20102;-73
2022/01/06 09:39:52;;;;;;;0.55;0.20;;;6.60;70.60;;;;;;5042048;28;20039;-74
2022/01/06 09:42:19;;;;;;;0.10;0.10;;;6.50;70.50;;;;;;5043621;28;20032;-74
2022/01/06 09:44:47;;;;;;;0.52;0.10;;;6.50;70.70;;;;;;5040486;28;20029;-74
2022/01/06 09:47:13;;;;;;;0.35;0.10;;;6.90;73.30;;;;;;5043469;28;20033;-74
2022/01/06 09:49:42;;;;;;;0.43;0.20;;;7.00;71.70;;;;;;5038100;28;20288;-74
2022/01/06 09:52:09;;;;;;;0.20;0.15;;;6.80;71.50;;;;;;5044173;28;20035;-75
2022/01/06 09:54:36;;;;;;;0.30;0.20;;;6.50;72.90;;;;;;5040300;28;20037;-74
2022/01/06 09:57:03;;;;;;;2.90;0.38;;;6.50;71.60;;;;;;5030249;28;20030;-74
2022/01/06 09:59:28;;;;;;;0.55;0.20;;;6.40;70.90;;;;;;5039267;28;20084;-75
2022/01/06 10:01:54;;;;;;;0.52;0.30;;;6.70;70.70;;;;;;5039002;28;20480;-75
2022/01/06 10:04:25;;;;;;;0.32;0.15;;;6.70;71.80;;;;;;5041820;28;20033;-76
2022/01/06 10:07:05;;;;;;;0.52;0.20;;;6.80;70.10;;;;;;5039713;28;20025;-75
2022/01/06 10:09:34;;;;;;;0.32;0.05;;;6.80;69.80;;;;;;5027511;28;20043;-75
2022/01/06 10:12:03;;;;;;;0.52;0.20;;;6.90;70.10;;;;;;5039163;28;20164;-75
2022/01/06 10:14:41;;;;;;;0.57;0.28;;;6.80;70.10;;;;;;5045929;28;20031;-74
2022/01/06 10:17:07;;;;;;;2.83;1.40;;;6.90;70.20;;;;;;5048863;28;20391;-75
2022/01/06 10:19:35;;;;;;;5.75;2.50;;;6.80;70.70;;;;;;5042027;28;20029;-74
2022/01/06 10:22:01;;;;;;;0.85;0.40;;;6.50;73.50;;;;;;5047048;28;20065;-74
2022/01/06 10:24:29;;;;;;;6.13;2.83;;;6.40;71.30;;;;;;5046668;28;20033;-75
2022/01/06 10:26:56;;;;;;;1.45;0.70;;;6.30;74.20;;;;;;5039578;28;20075;-74
2022/01/06 10:29:25;;;;;;;16.08;10.60;;;6.40;72.10;;;;;;5043493;28;20029;-74
2022/01/06 10:31:52;;;;;;;7.55;4.00;;;6.50;72.00;;;;;;5043974;28;20134;-75
2022/01/06 10:34:18;;;;;;;1.05;0.30;;;6.40;73.20;;;;;;5042848;28;20074;-74
2022/01/06 10:36:48;;;;;;;0.30;0.20;;;6.60;71.30;;;;;;5043843;28;20036;-74
2022/01/06 10:39:14;;;;;;;1.63;0.93;;;6.60;71.60;;;;;;5044695;28;20361;-74
2022/01/06 10:41:41;;;;;;;7.30;5.15;;;6.80;71.50;;;;;;5040280;28;20475;-75
2022/01/06 10:44:12;;;;;;;2.10;1.17;;;6.70;70.90;;;;;;5042688;28;20032;-74
2022/01/06 10:46:41;;;;;;;3.53;2.13;;;6.80;71.30;;;;;;5041251;28;20031;-74
2022/01/06 10:49:10;;;;;;;1.02;0.50;;;6.70;72.70;;;;;;5046862;28;20032;-74
2022/01/06 10:51:47;;;;;;;0.63;0.25;;;6.70;71.80;;;;;;5044787;28;20104;-75
2022/01/06 10:54:21;;;;;;;78.22;5.55;;;6.90;71.10;;;;;;5038395;28;20124;-76
2022/01/06 10:57:02;;;;;;;1.27;0.50;;;7.10;74.70;;;;;;5042501;28;20047;-75
2022/01/06 10:59:35;;;;;;;1.08;0.60;;;7.10;71.60;;;;;;5039336;28;20053;-75
2022/01/06 11:02:02;;;;;;;1.23;0.50;;;7.10;72.30;;;;;;5047370;28;20048;-75
2022/01/06 11:04:29;;;;;;;0.80;0.15;;;7.20;70.90;;;;;;5040226;28;20029;-74
2022/01/06 11:06:55;;;;;;;0.43;0.30;;;7.70;69.20;;;;;;5038812;28;20025;-74
2022/01/06 11:09:21;;;;;;;0.55;0.17;;;7.80;68.80;;;;;;5042519;28;20040;-75
2022/01/06 11:14:25;;;;;;;3.20;0.73;;;7.70;71.70;;;;;;5044516;28;20120;-75
2022/01/06 11:16:51;;;;;;;4.63;2.30;;;7.70;71.00;;;;;;5041615;28;20025;-75
2022/01/06 11:19:17;;;;;;;3.00;1.13;;;7.80;72.30;;;;;;5034478;28;20052;-75
2022/01/06 11:21:48;;;;;;;1.02;0.38;;;7.90;69.40;;;;;;5037649;28;20098;-76
2022/01/06 11:24:16;;;;;;;240.45;122.18;;;8.00;69.80;;;;;;5035594;28;20032;-75
2022/01/06 11:26:44;;;;;;;26.63;13.90;;;8.40;71.10;;;;;;5030607;28;20021;-75
2022/01/06 11:29:12;;;;;;;5.93;2.47;;;8.40;70.60;;;;;;5037966;28;20433;-74
2022/01/06 11:31:41;;;;;;;2.00;0.38;;;8.30;69.10;;;;;;5038191;28;20403;-74
2022/01/06 11:34:18;;;;;;;1.45;0.63;;;8.20;68.80;;;;;;5039224;28;20074;-78
2022/01/06 11:36:45;;;;;;;11.25;6.88;;;8.30;71.00;;;;;;5035927;28;20569;-74
2022/01/06 11:39:41;;;;;;;1.17;0.57;;;8.40;69.40;;;;;;5039182;28;20017;-76
2022/01/06 11:42:20;;;;;;;1.13;0.35;;;8.40;67.60;;;;;;5028270;28;20053;-76
2022/01/06 11:44:54;;;;;;;5.78;3.35;;;8.30;68.20;;;;;;5039798;28;20025;-76
2022/01/06 11:47:38;;;;;;;1.38;0.57;;;8.60;69.20;;;;;;5037216;28;20476;-75
2022/01/06 11:50:11;;;;;;;2.28;1.08;;;8.60;68.20;;;;;;5033010;28;20088;-76
2022/01/06 11:52:48;;;;;;;0.65;0.28;;;8.60;67.60;;;;;;5041670;28;20040;-76
2022/01/06 11:55:15;;;;;;;0.75;0.30;;;8.60;68.20;;;;;;5042833;28;20036;-75
2022/01/06 11:57:40;;;;;;;0.30;0.17;;;8.60;68.70;;;;;;5035241;28;20028;-77
2022/01/06 12:00:26;;;;;;;1.40;0.30;;;8.70;66.00;;;;;;5034407;28;20500;-73
2022/01/06 12:02:59;;;;;;;0.77;0.30;;;8.90;66.40;;;;;;5039336;28;20119;-74
2022/01/06 12:05:26;;;;;;;0.55;0.22;;;8.90;66.00;;;;;;5036378;28;20036;-77
2022/01/06 12:07:54;;;;;;;0.13;0.13;;;8.80;66.30;;;;;;5034391;28;20075;-75
2022/01/06 12:10:20;;;;;;;4.45;0.82;;;8.80;65.70;;;;;;5043577;28;20035;-76
2022/01/06 12:12:50;;;;;;;0.95;0.45;;;8.80;65.20;;;;;;5042078;28;20032;-75
2022/01/06 12:15:18;;;;;;;2.65;1.75;;;8.80;66.00;;;;;;5036644;28;20052;-75
2022/01/06 12:17:52;;;;;;;0.57;0.30;;;9.20;67.20;;;;;;5041026;28;20526;-75
2022/01/06 12:20:26;;;;;;;0.43;0.25;;;9.10;66.00;;;;;;5038000;28;20531;-75
2022/01/06 12:22:52;;;;;;;2.15;0.10;;;9.10;65.90;;;;;;5043324;28;20064;-75
2022/01/06 12:25:22;;;;;;;0.20;0.10;;;9.00;67.00;;;;;;5038145;28;20033;-75
2022/01/06 12:27:52;;;;;;;0.45;0.10;;;9.00;66.90;;;;;;5039988;28;20387;-77
2022/01/06 12:30:19;;;;;;;0.22;0.05;;;9.00;64.80;;;;;;5039920;28;20533;-75
2022/01/06 12:33:19;;;;;;;0.35;0.10;;;9.10;65.60;;;;;;5035622;28;20091;-79
2022/01/06 12:35:50;;;;;;;0.63;0.20;;;9.10;65.00;;;;;;5028005;28;20064;-75
2022/01/06 12:38:26;;;;;;;1.25;0.30;;;9.00;65.40;;;;;;5040224;28;20029;-75
2022/01/06 12:40:53;;;;;;;0.38;0.17;;;9.10;65.70;;;;;;5043457;28;20706;-77
2022/01/06 12:43:22;;;;;;;1.15;0.40;;;9.20;65.30;;;;;;5045193;28;20112;-75
2022/01/06 12:46:16;;;;;;;0.35;0.10;;;9.80;73.20;;;;;;5045504;28;20087;-76
2022/01/06 12:48:50;;;;;;;0.25;0.10;;;9.30;65.30;;;;;;5049522;28;20056;-75
2022/01/06 12:51:27;;;;;;;0.20;0.10;;;9.10;65.10;;;;;;5048397;28;20068;-74
2022/01/06 12:54:00;;;;;;;1.90;0.38;;;9.20;65.60;;;;;;5045797;28;20032;-74
2022/01/06 12:56:41;;;;;;;4.07;1.83;;;9.30;65.10;;;;;;5049787;28;20025;-74
2022/01/06 12:59:34;;;;;;;2.60;0.90;;;9.30;65.10;;;;;;5044083;28;20272;-74
2022/01/06 13:02:11;;;;;;;0.38;0.10;;;9.20;64.60;;;;;;5038870;28;20033;-74
2022/01/06 13:04:44;;;;;;;0.80;0.17;;;9.30;66.10;;;;;;5049239;28;20035;-74
2022/01/06 13:07:12;;;;;;;0.20;0.10;;;9.20;65.40;;;;;;5049531;28;20032;-74
2022/01/06 13:09:40;;;;;;;0.63;0.20;;;9.10;65.10;;;;;;5043939;28;20036;-75
2022/01/06 13:12:26;;;;;;;2.05;0.30;;;9.30;68.70;;;;;;5038082;28;20022;-74
2022/01/06 13:14:53;;;;;;;0.20;0.10;;;9.10;64.80;;;;;;5041883;28;20045;-74